Time;durP1;ratioP1;P1;durP2;ratioP2;P2;SDS_P1;SDS_P2;PMS_P1;PMS_P2;Temp;Humidity;BMP_temperature;BMP_pressure;BME280_temperature;BME280_humidity;BME280_pressure;Samples;Min_cycle;Max_cycle;Signal;HPM_P1;HPM_P2
2022/01/02 00:00:14;;;;;;;;;;;;;;;19.14;55.14;101836.06;5045563;28;20374;-49
2022/01/02 00:02:42;;;;;;;;;;;;;;;19.14;54.85;101836.06;5043265;28;19924;-49
2022/01/02 00:05:12;;;;;;;;;;;;;;;19.10;54.92;101826.59;5043560;28;19980;-49
2022/01/02 00:07:42;;;;;;;;;;;;;;;19.12;55.15;101821.06;5048289;28;20390;-49
2022/01/02 00:10:11;;;;;;;;;;;;;;;19.10;54.84;101823.06;5043904;28;19943;-51
2022/01/02 00:12:42;;;;;;;;;;;;;;;19.09;55.40;101815.97;5043389;28;19925;-48
2022/01/02 00:15:11;;;;;;;;;;;;;;;19.09;55.40;101815.97;5047844;28;20381;-46
2022/01/02 00:17:38;;;;;;;;;;;;;;;19.08;54.93;101812.41;5045480;28;19925;-47
2022/01/02 00:20:11;;;;;;;;;;;;;;;19.08;54.93;101807.06;5042088;28;19939;-47
2022/01/02 00:22:40;;;;;;;;;;;;;;;19.08;55.06;101792.78;5047480;28;19925;-50
2022/01/02 00:25:13;;;;;;;;;;;;;;;19.06;55.00;101787.53;5043307;28;19929;-49
2022/01/02 00:27:40;;;;;;;;;;;;;;;19.05;55.53;101780.44;5043186;28;19943;-46
2022/01/02 00:30:07;;;;;;;;;;;;;;;19.05;55.48;101767.00;5046302;28;19931;-48
2022/01/02 00:32:35;;;;;;;;;;;;;;;19.05;55.78;101753.56;5045795;28;19925;-47
2022/01/02 00:35:01;;;;;;;;;;;;;;;19.05;55.08;101742.81;5044147;28;19950;-51
2022/01/02 00:37:28;;;;;;;;;;;;;;;19.04;55.29;101741.13;5047479;28;19931;-46
2022/01/02 00:39:54;;;;;;;;;;;;;;;19.03;55.71;101754.72;5044517;28;19928;-46
2022/01/02 00:42:31;;;;;;;;;;;;;;;19.01;55.28;101749.47;5040675;28;19967;-46
2022/01/02 00:45:00;;;;;;;;;;;;;;;19.01;55.68;101754.00;5044382;28;19939;-46
2022/01/02 00:47:30;;;;;;;;;;;;;;;18.99;55.10;101764.88;5043834;28;19929;-47
2022/01/02 00:50:01;;;;;;;;;;;;;;;18.99;55.36;101776.47;5044949;28;19943;-50
2022/01/02 00:52:28;;;;;;;;;;;;;;;18.98;55.44;101774.78;5042994;28;19924;-50
2022/01/02 00:54:55;;;;;;;;;;;;;;;18.98;55.74;101763.19;5041514;28;19929;-49
2022/01/02 00:57:29;;;;;;;;;;;;;;;18.98;56.04;101763.19;5040963;28;19932;-51
2022/01/02 00:59:55;;;;;;;;;;;;;;;18.96;55.65;101752.56;5046021;28;20011;-49
2022/01/02 01:02:28;;;;;;;;;;;;;;;18.95;55.49;101744.66;5036202;28;19939;-50
2022/01/02 01:04:55;;;;;;;;;;;;;;;18.94;56.08;101737.59;5041840;28;19932;-50
2022/01/02 01:07:23;;;;;;;;;;;;;;;18.95;56.16;101741.97;5043601;28;19933;-47
2022/01/02 01:09:50;;;;;;;;;;;;;;;18.94;56.02;101741.13;5038172;28;19972;-48
2022/01/02 01:12:17;;;;;;;;;;;;;;;18.93;55.76;101746.63;5040132;28;19935;-48
2022/01/02 01:14:46;;;;;;;;;;;;;;;18.93;55.94;101730.50;5043412;28;19935;-47
2022/01/02 01:17:14;;;;;;;;;;;;;;;18.93;56.32;101736.72;5040889;28;20020;-48
2022/01/02 01:19:41;;;;;;;;;;;;;;;18.93;55.69;101725.13;5038140;28;19931;-48
2022/01/02 01:22:08;;;;;;;;;;;;;;;18.91;56.32;101719.91;5038692;28;19924;-47
2022/01/02 01:24:35;;;;;;;;;;;;;;;18.91;55.86;101709.16;5038143;28;19928;-49
2022/01/02 01:27:04;;;;;;;;;;;;;;;18.90;55.79;101706.63;5041018;28;20005;-48
2022/01/02 01:29:34;;;;;;;;;;;;;;;18.91;56.29;101708.31;5037744;28;19931;-50
2022/01/02 01:32:01;;;;;;;;;;;;;;;18.89;56.13;101696.84;5038705;28;19968;-49
2022/01/02 01:34:28;;;;;;;;;;;;;;;18.88;55.97;101670.97;5039524;28;19939;-50
2022/01/02 01:36:54;;;;;;;;;;;;;;;18.87;56.16;101664.75;5039678;28;19925;-47
2022/01/02 01:39:21;;;;;;;;;;;;;;;18.88;56.35;101668.28;5036209;28;19944;-48
2022/01/02 01:41:48;;;;;;;;;;;;;;;18.87;56.66;101658.53;5039155;28;19925;-48
2022/01/02 01:46:44;;;;;;;;;;;;;;;18.86;56.19;101644.28;5040200;28;19932;-51
2022/01/02 01:49:15;;;;;;;;;;;;;;;18.86;56.12;101646.13;5039988;28;20320;-48
2022/01/02 01:51:43;;;;;;;;;;;;;;;18.84;55.98;101642.69;5038357;28;19928;-49
2022/01/02 01:54:09;;;;;;;;;;;;;;;18.86;56.15;101638.06;5042480;28;19932;-49
2022/01/02 01:56:36;;;;;;;;;;;;;;;18.84;56.36;101634.63;5042469;28;19943;-47
2022/01/02 01:59:03;;;;;;;;;;;;;;;18.84;57.03;101632.81;5041605;28;19928;-48
2022/01/02 02:01:30;;;;;;;;;;;;;;;18.84;56.14;101631.94;5041905;28;19940;-48
2022/01/02 02:03:56;;;;;;;;;;;;;;;18.83;56.47;101636.47;5045854;28;20332;-52
2022/01/02 02:06:23;;;;;;;;;;;;;;;18.82;56.47;101634.78;5040418;28;20233;-48
2022/01/02 02:08:52;;;;;;;;;;;;;;;18.81;56.66;101633.06;5040147;28;19956;-51
2022/01/02 02:11:22;;;;;;;;;;;;;;;18.80;56.22;101626.00;5040806;28;19943;-49
2022/01/02 02:13:48;;;;;;;;;;;;;;;18.82;56.49;101628.56;5038840;28;19933;-51
2022/01/02 02:16:15;;;;;;;;;;;;;;;18.80;56.45;101619.78;5042441;28;20618;-50
2022/01/02 02:18:41;;;;;;;;;;;;;;;18.79;56.25;101621.63;5046133;28;19929;-49
2022/01/02 02:21:08;;;;;;;;;;;;;;;18.78;56.51;101624.47;5040445;28;20222;-51
2022/01/02 02:23:34;;;;;;;;;;;;;;;18.78;56.47;101624.47;5041089;28;19948;-49
2022/01/02 02:26:00;;;;;;;;;;;;;;;18.77;56.53;101603.94;5040584;28;20042;-52
2022/01/02 02:28:27;;;;;;;;;;;;;;;18.78;56.89;101616.41;5037390;28;19939;-51
2022/01/02 02:30:53;;;;;;;;;;;;;;;18.77;56.99;101599.41;5035641;28;20268;-51
2022/01/02 02:33:21;;;;;;;;;;;;;;;18.78;56.81;101584.19;5038018;28;20241;-51
2022/01/02 02:35:48;;;;;;;;;;;;;;;18.77;56.35;101588.69;5032804;28;19939;-49
2022/01/02 02:38:18;;;;;;;;;;;;;;;18.77;56.48;101593.22;5044619;28;20016;-50
2022/01/02 02:40:45;;;;;;;;;;;;;;;18.75;56.94;101593.38;5039373;28;19990;-49
2022/01/02 02:51:32;;;;;;;;;;;;;;;18.73;56.79;101576.53;5039282;28;20225;-48
2022/01/02 02:53:59;;;;;;;;;;;;;;;18.72;56.64;101572.16;5039358;28;19983;-48
2022/01/02 02:56:29;;;;;;;;;;;;;;;18.73;56.82;101574.72;5038120;28;20248;-50
2022/01/02 02:58:56;;;;;;;;;;;;;;;18.71;57.20;101565.94;5041587;28;19939;-48
2022/01/02 03:01:24;;;;;;;;;;;;;;;18.70;56.99;101556.19;5042017;28;19925;-48
2022/01/02 03:03:51;;;;;;;;;;;;;;;18.71;57.01;101547.13;5048293;28;20024;-49
2022/01/02 03:06:19;;;;;;;;;;;;;;;18.72;56.55;101550.66;5044376;28;19960;-51
2022/01/02 03:08:46;;;;;;;;;;;;;;;18.72;56.57;101538.09;5046411;28;20037;-49
2022/01/02 03:11:16;;;;;;;;;;;;;;;18.72;57.04;101542.63;5045377;28;20423;-48
2022/01/02 03:13:43;;;;;;;;;;;;;;;18.72;56.44;101545.28;5041376;28;19932;-49
2022/01/02 03:16:10;;;;;;;;;;;;;;;18.71;56.91;101563.25;5043609;28;19925;-50
2022/01/02 03:18:37;;;;;;;;;;;;;;;18.71;57.05;101568.63;5045114;28;20020;-49
2022/01/02 03:21:03;;;;;;;;;;;;;;;18.71;57.00;101571.31;5045521;28;19935;-51
2022/01/02 03:23:29;;;;;;;;;;;;;;;18.70;56.75;101568.78;5041621;28;20441;-48
2022/01/02 03:25:56;;;;;;;;;;;;;;;18.70;56.49;101561.56;5039378;28;19925;-48
2022/01/02 03:28:22;;;;;;;;;;;;;;;18.70;56.82;101550.81;5039526;28;19928;-50
2022/01/02 03:30:49;;;;;;;;;;;;;;;18.69;57.19;101556.28;5046272;28;19929;-49
2022/01/02 03:33:16;;;;;;;;;;;;;;;18.69;56.97;101548.22;5043773;28;19925;-48
2022/01/02 03:35:42;;;;;;;;;;;;;;;18.70;56.83;101544.59;5043366;28;20617;-48
2022/01/02 03:38:09;;;;;;;;;;;;;;;18.70;57.31;101545.44;5044945;28;19943;-51
2022/01/02 03:40:36;;;;;;;;;;;;;;;18.69;57.32;101549.09;5041504;28;20271;-48
2022/01/02 03:43:03;;;;;;;;;;;;;;;18.70;56.81;101541.91;5043278;28;19925;-49
2022/01/02 03:45:30;;;;;;;;;;;;;;;18.71;56.82;101538.25;5046394;28;19925;-48
2022/01/02 03:47:56;;;;;;;;;;;;;;;18.70;56.85;101523.13;5039799;28;19932;-49
2022/01/02 03:50:22;;;;;;;;;;;;;;;18.69;57.08;101516.00;5042935;28;20023;-49
2022/01/02 03:52:49;;;;;;;;;;;;;;;18.69;56.89;101505.25;5046231;28;19931;-49
2022/01/02 03:55:15;;;;;;;;;;;;;;;18.69;56.87;101503.44;5042523;28;19925;-48
2022/01/02 03:57:42;;;;;;;;;;;;;;;18.67;57.18;101500.03;5044934;28;19936;-49
2022/01/02 04:00:10;;;;;;;;;;;;;;;18.67;56.75;101489.31;5046198;28;19924;-48
2022/01/02 04:02:37;;;;;;;;;;;;;;;18.67;56.82;101483.94;5042607;28;20642;-50
2022/01/02 04:05:10;;;;;;;;;;;;;;;18.65;56.91;101479.69;5045214;28;19938;-49
2022/01/02 04:07:36;;;;;;;;;;;;;;;18.66;56.89;101479.56;5040570;28;19933;-51
2022/01/02 04:10:05;;;;;;;;;;;;;;;18.63;56.95;101482.53;5042589;28;19924;-51
2022/01/02 04:12:32;;;;;;;;;;;;;;;18.64;56.78;101486.06;5041579;28;19978;-49
2022/01/02 04:14:59;;;;;;;;;;;;;;;18.63;56.80;101469.09;5044961;28;19925;-48
2022/01/02 04:17:25;;;;;;;;;;;;;;;18.62;56.92;101482.69;5041267;28;20295;-48
2022/01/02 04:19:52;;;;;;;;;;;;;;;18.60;57.17;101466.69;5042357;28;19954;-48
2022/01/02 04:22:19;;;;;;;;;;;;;;;18.62;56.92;101478.16;5041449;28;19933;-48
2022/01/02 04:24:45;;;;;;;;;;;;;;;18.61;56.93;101473.75;5043393;28;19931;-49
2022/01/02 04:27:12;;;;;;;;;;;;;;;18.61;56.87;101471.06;5041764;28;19933;-49
2022/01/02 04:29:38;;;;;;;;;;;;;;;18.60;56.77;101461.31;5040492;28;19932;-47
2022/01/02 04:32:04;;;;;;;;;;;;;;;18.59;57.15;101465.00;5040177;28;20569;-52
2022/01/02 04:34:31;;;;;;;;;;;;;;;18.57;57.13;101461.59;5041179;28;20423;-50
2022/01/02 04:36:57;;;;;;;;;;;;;;;18.59;56.65;101465.00;5040072;28;19943;-48
2022/01/02 04:39:23;;;;;;;;;;;;;;;18.58;56.98;101460.63;5041517;28;20496;-48
2022/01/02 04:41:50;;;;;;;;;;;;;;;18.58;57.13;101451.72;5044227;28;19966;-48
2022/01/02 04:44:16;;;;;;;;;;;;;;;18.57;57.10;101458.91;5041097;28;19924;-48
2022/01/02 04:46:43;;;;;;;;;;;;;;;18.58;57.41;101449.88;5041495;28;19936;-49
2022/01/02 04:49:09;;;;;;;;;;;;;;;18.57;57.19;101448.16;5045243;28;19974;-48
2022/01/02 04:51:35;;;;;;;;;;;;;;;18.57;56.98;101441.97;5044516;28;20034;-51
2022/01/02 04:54:02;;;;;;;;;;;;;;;18.56;56.89;101435.75;5042123;28;20019;-52
2022/01/02 04:56:28;;;;;;;;;;;;;;;18.56;57.09;101425.00;5038806;28;19925;-49
2022/01/02 04:58:55;;;;;;;;;;;;;;;18.56;57.25;101414.28;5040026;28;19929;-49
2022/01/02 05:01:22;;;;;;;;;;;;;;;18.56;56.97;101418.78;5037918;28;19933;-48
2022/01/02 05:03:48;;;;;;;;;;;;;;;18.55;57.39;101409.91;5043511;28;19925;-49
2022/01/02 05:06:14;;;;;;;;;;;;;;;18.55;57.28;101414.44;5043976;28;19932;-49
2022/01/02 05:08:45;;;;;;;;;;;;;;;18.54;57.20;101405.53;5044362;28;20174;-49
2022/01/02 05:11:13;;;;;;;;;;;;;;;18.54;57.36;101399.31;5042804;28;19935;-48
2022/01/02 05:13:40;;;;;;;;;;;;;;;18.54;57.48;101391.25;5040116;28;20616;-50
2022/01/02 05:16:06;;;;;;;;;;;;;;;18.54;57.30;101380.53;5041234;28;19929;-48
2022/01/02 05:18:33;;;;;;;;;;;;;;;18.53;57.29;101376.97;5042663;28;20024;-49
2022/01/02 05:20:59;;;;;;;;;;;;;;;18.53;57.43;101371.59;5037513;28;19951;-49
2022/01/02 05:23:25;;;;;;;;;;;;;;;18.52;57.43;101358.34;5039241;28;19931;-49
2022/01/02 05:25:52;;;;;;;;;;;;;;;18.54;57.60;101361.72;5038309;28;19939;-50
2022/01/02 05:28:18;;;;;;;;;;;;;;;18.53;57.56;101365.38;5044829;28;20048;-50
2022/01/02 05:30:44;;;;;;;;;;;;;;;18.53;57.40;101357.34;5044608;28;20363;-49
2022/01/02 05:33:11;;;;;;;;;;;;;;;18.53;57.14;101349.28;5041474;28;19929;-48
2022/01/02 05:35:37;;;;;;;;;;;;;;;18.53;57.66;101339.38;5039709;28;19932;-49
2022/01/02 05:38:04;;;;;;;;;;;;;;;18.53;57.22;101339.38;5039153;28;20261;-50
2022/01/02 05:40:32;;;;;;;;;;;;;;;18.52;57.37;101335.00;5038385;28;19925;-52
2022/01/02 05:42:58;;;;;;;;;;;;;;;18.52;57.22;101321.59;5042301;28;19924;-50
2022/01/02 05:45:25;;;;;;;;;;;;;;;18.53;57.19;101325.13;5040666;28;19928;-51
2022/01/02 05:47:51;;;;;;;;;;;;;;;18.53;57.20;101317.06;5039961;28;20352;-49
2022/01/02 05:50:18;;;;;;;;;;;;;;;18.52;57.49;101316.22;5044559;28;20343;-49
2022/01/02 05:52:44;;;;;;;;;;;;;;;18.51;57.02;101319.91;5038954;28;19925;-48
2022/01/02 05:55:11;;;;;;;;;;;;;;;18.52;57.25;101304.66;5040716;28;19943;-50
2022/01/02 05:57:37;;;;;;;;;;;;;;;18.52;57.52;101302.81;5044178;28;19931;-50
2022/01/02 06:00:05;;;;;;;;;;;;;;;18.52;57.12;101292.06;5039607;28;19932;-49
2022/01/02 06:02:31;;;;;;;;;;;;;;;18.52;57.33;101286.69;5041929;28;20361;-50
2022/01/02 06:04:58;;;;;;;;;;;;;;;18.51;57.42;101279.66;5046167;28;19971;-49
2022/01/02 06:07:24;;;;;;;;;;;;;;;18.51;57.40;101268.91;5039610;28;19929;-51
2022/01/02 06:09:51;;;;;;;;;;;;;;;18.52;57.31;101264.38;5042588;28;19928;-52
2022/01/02 06:12:17;;;;;;;;;;;;;;;18.51;57.50;101260.84;5040917;28;20004;-49
2022/01/02 06:14:43;;;;;;;;;;;;;;;18.51;57.46;101247.44;5042156;28;19928;-49
2022/01/02 06:17:10;;;;;;;;;;;;;;;18.51;57.09;101242.06;5044659;28;19931;-48
2022/01/02 06:19:36;;;;;;;;;;;;;;;18.50;57.27;101249.28;5042940;28;19931;-48
2022/01/02 06:22:02;;;;;;;;;;;;;;;18.49;57.35;101226.13;5041046;28;20240;-52
2022/01/02 06:24:29;;;;;;;;;;;;;;;18.50;57.21;101226.97;5039676;28;20371;-50
2022/01/02 06:26:55;;;;;;;;;;;;;;;18.48;57.36;101213.66;5043011;28;20000;-51
2022/01/02 06:29:22;;;;;;;;;;;;;;;18.48;57.27;101200.25;5036142;28;20552;-50
2022/01/02 06:31:48;;;;;;;;;;;;;;;18.49;57.31;101199.28;5038793;28;19925;-50
2022/01/02 06:34:14;;;;;;;;;;;;;;;18.48;57.04;101188.66;5037225;28;19929;-49
2022/01/02 06:36:41;;;;;;;;;;;;;;;18.47;57.37;101186.97;5042288;28;20563;-52
2022/01/02 06:39:07;;;;;;;;;;;;;;;18.47;57.21;101184.31;5045011;28;19948;-48
2022/01/02 06:41:34;;;;;;;;;;;;;;;18.47;56.87;101195.03;5038345;28;20461;-47
2022/01/02 06:44:00;;;;;;;;;;;;;;;18.46;57.44;101179.94;5038118;28;19935;-47
2022/01/02 06:46:26;;;;;;;;;;;;;;;18.45;56.83;101186.28;5042155;28;19928;-47
2022/01/02 06:48:53;;;;;;;;;;;;;;;18.45;57.01;101180.91;5043001;28;19932;-47
2022/01/02 06:51:39;;;;;;;;;;;;;;;18.45;57.54;101165.66;5043189;28;20017;-48
2022/01/02 06:54:05;;;;;;;;;;;;;;;18.46;57.09;101147.72;5041203;28;20032;-49
2022/01/02 06:56:32;;;;;;;;;;;;;;;18.44;57.12;101155.91;5040727;28;20023;-48
2022/01/02 06:58:58;;;;;;;;;;;;;;;18.45;57.17;101152.25;5037881;28;21009;-48
2022/01/02 07:01:24;;;;;;;;;;;;;;;18.44;56.96;101142.47;5039517;28;19924;-50
2022/01/02 07:03:51;;;;;;;;;;;;;;;18.43;56.78;101138.13;5037630;28;19925;-49
2022/01/02 07:06:17;;;;;;;;;;;;;;;18.43;56.89;101140.81;5043025;28;20008;-47
2022/01/02 07:08:44;;;;;;;;;;;;;;;18.43;57.23;101123.84;5038195;28;19932;-47
2022/01/02 07:11:11;;;;;;;;;;;;;;;18.42;57.16;101131.06;5041219;28;19940;-48
2022/01/02 07:13:40;;;;;;;;;;;;;;;18.42;57.11;101122.19;5037776;28;20021;-48
2022/01/02 07:16:06;;;;;;;;;;;;;;;18.42;57.05;101125.69;5041722;28;20031;-48
2022/01/02 07:18:33;;;;;;;;;;;;;;;18.41;56.70;101133.88;5033981;28;20234;-48
2022/01/02 07:20:59;;;;;;;;;;;;;;;18.40;57.09;101130.34;5042707;28;19925;-47
2022/01/02 07:23:25;;;;;;;;;;;;;;;18.40;57.18;101135.72;5043144;28;20271;-49
2022/01/02 07:25:52;;;;;;;;;;;;;;;18.41;56.69;101139.25;5035751;28;19925;-48
2022/01/02 07:28:19;;;;;;;;;;;;;;;18.42;57.13;101140.97;5041043;28;20190;-51
2022/01/02 07:30:45;;;;;;;;;;;;;;;18.42;56.81;101135.59;5038104;28;19943;-48
2022/01/02 07:33:11;;;;;;;;;;;;;;;18.41;56.32;101139.25;5036249;28;19960;-49
2022/01/02 07:35:38;;;;;;;;;;;;;;;18.40;56.70;101151.00;5039930;28;19925;-48
2022/01/02 07:38:24;;;;;;;;;;;;;;;18.38;56.66;101144.94;5042873;28;20340;-51
2022/01/02 07:40:51;;;;;;;;;;;;;;;18.37;56.50;101153.97;5031967;28;19929;-48
2022/01/02 07:43:17;;;;;;;;;;;;;;;18.36;57.11;101161.16;5032532;28;19939;-49
2022/01/02 07:45:43;;;;;;;;;;;;;;;18.36;56.67;101169.22;5033042;28;19933;-48
2022/01/02 07:48:10;;;;;;;;;;;;;;;18.36;56.92;101171.06;5032462;28;20026;-49
2022/01/02 07:50:36;;;;;;;;;;;;;;;18.36;57.14;101165.69;5033203;28;19932;-49
2022/01/02 07:53:03;;;;;;;;;;;;;;;18.34;57.24;101165.00;5032603;28;19935;-48
2022/01/02 07:55:29;;;;;;;;;;;;;;;18.35;56.97;101172.06;5034559;28;20252;-48
2022/01/02 07:57:55;;;;;;;;;;;;;;;18.36;57.26;101173.75;5036797;28;20287;-48
2022/01/02 08:00:22;;;;;;;;;;;;;;;18.35;57.26;101162.16;5032346;28;20248;-48
2022/01/02 08:02:48;;;;;;;;;;;;;;;18.34;57.21;101160.50;5032673;28;20648;-47
2022/01/02 08:05:15;;;;;;;;;;;;;;;18.34;56.95;101156.97;5033153;28;19929;-52
2022/01/02 08:07:41;;;;;;;;;;;;;;;18.35;57.06;101158.66;5037438;28;20007;-48
2022/01/02 08:10:08;;;;;;;;;;;;;;;18.34;56.55;101170.38;5039516;28;20007;-48
2022/01/02 08:12:34;;;;;;;;;;;;;;;18.34;56.97;101157.81;5041834;28;20108;-49
2022/01/02 08:15:01;;;;;;;;;;;;;;;18.35;57.24;101158.66;5038043;28;19933;-52
2022/01/02 08:17:28;;;;;;;;;;;;;;;18.33;56.74;101166.84;5043770;28;19925;-47
2022/01/02 08:19:54;;;;;;;;;;;;;;;18.35;56.88;101169.38;5036864;28;20351;-48
2022/01/02 08:22:20;;;;;;;;;;;;;;;18.34;56.63;101162.34;5037194;28;19951;-47
2022/01/02 08:24:47;;;;;;;;;;;;;;;18.34;56.79;101154.28;5041027;28;20201;-52
2022/01/02 08:27:13;;;;;;;;;;;;;;;18.33;56.81;101165.97;5035569;28;19933;-51
2022/01/02 08:29:39;;;;;;;;;;;;;;;18.34;57.17;101165.00;5041700;28;19935;-52
2022/01/02 08:32:06;;;;;;;;;;;;;;;18.34;56.61;101146.22;5037294;28;19931;-50
2022/01/02 08:34:32;;;;;;;;;;;;;;;18.34;57.05;101146.22;5041604;28;19924;-49
2022/01/02 08:36:59;;;;;;;;;;;;;;;18.35;56.71;101145.22;5035731;28;20003;-51
2022/01/02 08:39:25;;;;;;;;;;;;;;;18.35;56.70;101153.28;5034948;28;20345;-52
2022/01/02 08:41:53;;;;;;;;;;;;;;;18.33;56.70;101140.03;5035610;28;19925;-51
2022/01/02 08:44:20;;;;;;;;;;;;;;;18.34;56.39;101144.38;5037448;28;19933;-49
2022/01/02 08:46:47;;;;;;;;;;;;;;;18.35;56.89;101147.91;5043834;28;19935;-49
2022/01/02 08:49:13;;;;;;;;;;;;;;;18.37;56.88;101159.31;5039144;28;20409;-51
2022/01/02 08:51:40;;;;;;;;;;;;;;;18.36;56.58;101168.38;5034984;28;20012;-50
2022/01/02 08:54:06;;;;;;;;;;;;;;;18.36;56.77;101163.00;5037179;28;19986;-49
2022/01/02 08:56:33;;;;;;;;;;;;;;;18.36;56.67;101161.16;5036459;28;19939;-53
2022/01/02 08:58:59;;;;;;;;;;;;;;;18.36;56.56;101160.31;5038218;28;19931;-49
2022/01/02 09:01:25;;;;;;;;;;;;;;;18.36;56.67;101141.53;5033371;28;19925;-52
2022/01/02 09:03:52;;;;;;;;;;;;;;;18.36;56.44;101146.91;5033076;28;19946;-51
2022/01/02 09:06:18;;;;;;;;;;;;;;;18.35;55.94;101129.97;5041549;28;20011;-51
2022/01/02 09:08:45;;;;;;;;;;;;;;;18.34;56.15;101130.97;5031791;28;19926;-48
2022/01/02 09:11:11;;;;;;;;;;;;;;;18.35;56.20;101146.06;5031095;28;20020;-52
2022/01/02 09:13:37;;;;;;;;;;;;;;;18.36;56.12;101147.75;5034568;28;20224;-50
2022/01/02 09:16:04;;;;;;;;;;;;;;;18.40;56.52;101142.94;5029855;28;20410;-50
2022/01/02 09:18:30;;;;;;;;;;;;;;;18.43;56.58;101145.34;5032587;28;20060;-49
2022/01/02 09:20:56;;;;;;;;;;;;;;;18.46;56.39;101135.16;5031519;28;20001;-49
2022/01/02 09:23:23;;;;;;;;;;;;;;;18.51;56.30;101137.38;5032367;28;19936;-52
2022/01/02 09:25:49;;;;;;;;;;;;;;;18.55;56.14;101138.75;5034162;28;19925;-50
2022/01/02 09:28:16;;;;;;;;;;;;;;;18.58;55.78;101143.84;5030241;28;19933;-48
2022/01/02 09:30:42;;;;;;;;;;;;;;;18.64;55.69;101140.53;5031508;28;20818;-49
2022/01/02 09:33:08;;;;;;;;;;;;;;;18.68;55.86;101143.78;5035706;28;19933;-51
2022/01/02 09:35:37;;;;;;;;;;;;;;;18.71;55.29;101148.88;5033677;28;19933;-49
2022/01/02 09:38:04;;;;;;;;;;;;;;;18.75;55.28;101163.69;5035899;28;19929;-49
2022/01/02 09:40:31;;;;;;;;;;;;;;;18.77;55.17;101147.41;5037782;28;19928;-50
2022/01/02 09:42:58;;;;;;;;;;;;;;;18.77;54.16;101142.88;5036478;28;20481;-49
2022/01/02 09:45:25;;;;;;;;;;;;;;;18.79;54.69;101157.03;5037761;28;20333;-48
2022/01/02 09:47:52;;;;;;;;;;;;;;;18.81;54.33;101163.06;5040516;28;20395;-49
2022/01/02 09:50:19;;;;;;;;;;;;;;;18.81;54.14;101157.72;5035453;28;19932;-50
2022/01/02 09:52:45;;;;;;;;;;;;;;;18.80;54.01;101147.97;5033523;28;20562;-50
2022/01/02 09:55:12;;;;;;;;;;;;;;;18.82;54.09;101154.06;5039743;28;19932;-49
2022/01/02 09:57:43;;;;;;;;;;;;;;;18.81;53.88;101154.19;5037633;28;20378;-52
2022/01/02 10:00:10;;;;;;;;;;;;;;;18.80;53.83;101145.28;5029663;28;19967;-50
2022/01/02 10:02:55;;;;;;;;;;;;;;;18.78;54.30;101149.97;5030557;28;19925;-49
2022/01/02 10:05:24;;;;;;;;;;;;;;;18.78;54.38;101155.34;5031798;28;20420;-51
2022/01/02 10:07:51;;;;;;;;;;;;;;;18.78;54.20;101149.13;5029718;28;19933;-53
2022/01/02 10:10:18;;;;;;;;;;;;;;;18.79;54.89;101148.13;5031447;28;20038;-52
2022/01/02 10:12:45;;;;;;;;;;;;;;;18.82;54.67;101162.09;5029593;28;20403;-51
2022/01/02 10:15:11;;;;;;;;;;;;;;;18.87;55.20;101148.22;5030422;28;19929;-50
2022/01/02 10:17:56;;;;;;;;;;;;;;;18.89;54.65;101148.91;5031451;28;20466;-52
2022/01/02 10:20:25;;;;;;;;;;;;;;;18.89;53.34;101147.06;5027375;28;19929;-48
2022/01/02 10:23:06;;;;;;;;;;;;;;;18.90;52.88;101148.75;5029983;28;20396;-49
2022/01/02 10:25:37;;;;;;;;;;;;;;;18.87;53.18;101141.00;5030130;28;20008;-50
2022/01/02 10:28:25;;;;;;;;;;;;;;;18.89;53.25;101146.22;5032980;28;19933;-49
2022/01/02 10:30:57;;;;;;;;;;;;;;;18.87;53.52;101145.53;5029582;28;19937;-49
2022/01/02 10:33:24;;;;;;;;;;;;;;;18.84;54.20;101154.72;5029969;28;19925;-50
2022/01/02 10:35:58;;;;;;;;;;;;;;;18.82;54.14;101140.63;5030915;28;19925;-49
2022/01/02 10:38:25;;;;;;;;;;;;;;;18.80;54.09;101150.66;5029996;28;19974;-50
2022/01/02 10:40:51;;;;;;;;;;;;;;;18.80;54.25;101158.72;5028974;28;20112;-50
2022/01/02 10:43:25;;;;;;;;;;;;;;;18.77;54.29;101153.63;5032132;28;19931;-49
2022/01/02 10:45:53;;;;;;;;;;;;;;;18.78;54.43;101165.25;5027861;28;20567;-51
2022/01/02 10:48:37;;;;;;;;;;;;;;;18.77;54.84;101182.34;5031616;28;20032;-48
2022/01/02 10:51:14;;;;;;;;;;;;;;;18.74;55.02;101157.47;5032450;28;19933;-48
2022/01/02 10:53:51;;;;;;;;;;;;;;;18.73;54.89;101150.44;5032373;28;20030;-49
2022/01/02 10:56:20;;;;;;;;;;;;;;;18.72;55.22;101155.94;5032893;28;20376;-49
2022/01/02 10:58:47;;;;;;;;;;;;;;;18.71;55.25;101165.84;5039399;28;19947;-50
2022/01/02 11:01:14;;;;;;;;;;;;;;;18.71;55.13;101165.00;5040046;28;19929;-49
2022/01/02 11:03:43;;;;;;;;;;;;;;;18.70;55.30;101169.53;5033558;28;19941;-49
2022/01/02 11:06:13;;;;;;;;;;;;;;;18.69;55.52;101158.88;5036440;28;20036;-51
2022/01/02 11:08:44;;;;;;;;;;;;;;;18.70;55.15;101163.31;5032514;28;20540;-48
2022/01/02 11:11:10;;;;;;;;;;;;;;;18.69;55.31;101158.88;5031055;28;19929;-51
2022/01/02 11:13:37;;;;;;;;;;;;;;;18.69;55.33;101157.06;5033670;28;19929;-51
2022/01/02 11:16:04;;;;;;;;;;;;;;;18.69;55.52;101165.13;5032916;28;19974;-48
2022/01/02 11:18:32;;;;;;;;;;;;;;;18.70;55.47;101163.31;5033095;28;20362;-51
2022/01/02 11:20:59;;;;;;;;;;;;;;;18.70;55.39;101164.16;5033723;28;20339;-48
2022/01/02 11:23:54;;;;;;;;;;;;;;;18.72;55.68;101170.19;5038154;28;19971;-52
2022/01/02 11:26:59;;;;;;;;;;;;;;;18.75;55.98;101163.69;5036720;28;20202;-50
2022/01/02 11:29:26;;;;;;;;;;;;;;;18.78;55.66;101170.63;5046367;28;20323;-49
2022/01/02 11:31:54;;;;;;;;;;;;;;;18.80;55.44;101174.81;5043410;28;20392;-53
2022/01/02 11:34:27;;;;;;;;;;;;;;;18.81;54.99;101167.59;5041196;28;19939;-52
2022/01/02 11:37:13;;;;;;;;;;;;;;;18.79;55.23;101178.50;5034768;28;19933;-49
2022/01/02 11:39:55;;;;;;;;;;;;;;;18.80;55.10;101173.97;5036540;28;19988;-53
2022/01/02 11:42:34;;;;;;;;;;;;;;;18.80;55.25;101182.03;5035307;28;20016;-49
2022/01/02 11:45:02;;;;;;;;;;;;;;;18.78;55.43;101187.56;5039568;28;19931;-50
2022/01/02 11:47:42;;;;;;;;;;;;;;;18.78;55.33;101186.72;5041881;28;19932;-48
2022/01/02 11:50:28;;;;;;;;;;;;;;;18.77;55.18;101183.16;5037798;28;19937;-52
2022/01/02 11:53:09;;;;;;;;;;;;;;;18.76;55.54;101186.88;5037675;28;19925;-48
2022/01/02 11:55:38;;;;;;;;;;;;;;;18.77;55.76;101193.06;5045764;28;19936;-51
2022/01/02 11:58:04;;;;;;;;;;;;;;;18.77;55.66;101179.66;5039798;28;20284;-49
2022/01/02 12:00:41;;;;;;;;;;;;;;;18.77;55.53;101174.28;5039283;28;19929;-48
2022/01/02 12:03:26;;;;;;;;;;;;;;;18.78;55.69;101181.34;5044460;28;19929;-48
2022/01/02 12:06:12;;;;;;;;;;;;;;;18.76;55.76;101173.44;5040554;28;20019;-49
2022/01/02 12:08:38;;;;;;;;;;;;;;;18.77;55.63;101160.84;5041856;28;20016;-51
2022/01/02 12:11:24;;;;;;;;;;;;;;;18.77;55.79;101168.91;5040928;28;19963;-50
2022/01/02 12:14:01;;;;;;;;;;;;;;;18.76;55.47;101175.28;5037650;28;20650;-50
2022/01/02 12:16:35;;;;;;;;;;;;;;;18.76;55.44;101175.28;5039654;28;19925;-49
2022/01/02 12:19:03;;;;;;;;;;;;;;;18.76;55.42;101161.84;5039600;28;19933;-50
2022/01/02 12:21:31;;;;;;;;;;;;;;;18.77;55.36;101174.28;5041770;28;20362;-51
2022/01/02 12:23:58;;;;;;;;;;;;;;;18.75;55.50;101161.00;5039693;28;19925;-50
2022/01/02 12:26:29;;;;;;;;;;;;;;;18.77;55.52;101166.22;5041385;28;20032;-50
2022/01/02 12:29:05;;;;;;;;;;;;;;;18.77;55.71;101171.59;5039451;28;20497;-51
2022/01/02 12:31:36;;;;;;;;;;;;;;;18.76;55.34;101177.97;5038024;28;19928;-49
2022/01/02 12:34:03;;;;;;;;;;;;;;;18.76;55.61;101170.75;5038304;28;20015;-51
2022/01/02 12:36:29;;;;;;;;;;;;;;;18.76;55.38;101172.59;5039207;28;19932;-52
2022/01/02 12:38:57;;;;;;;;;;;;;;;18.77;55.70;101172.44;5037474;28;20205;-52
2022/01/02 12:41:25;;;;;;;;;;;;;;;18.77;55.32;101185.00;5040799;28;20259;-48
2022/01/02 12:44:02;;;;;;;;;;;;;;;18.77;55.41;101180.50;5038549;28;19933;-50
2022/01/02 12:46:44;;;;;;;;;;;;;;;18.77;55.34;101182.34;5039946;28;19925;-50
2022/01/02 12:49:10;;;;;;;;;;;;;;;18.77;55.84;101177.81;5036785;28;20367;-50
2022/01/02 12:51:38;;;;;;;;;;;;;;;18.77;55.92;101180.50;5038035;28;19932;-49